createdAt,value
2019-05-02T00:00:55.674Z,10.14
2019-05-02T00:03:26.263Z,10.08
2019-05-02T00:05:56.368Z,9.97
2019-05-02T00:08:29.323Z,9.91
2019-05-02T00:10:56.546Z,9.83
2019-05-02T00:13:26.776Z,9.67
2019-05-02T00:15:56.374Z,9.66
2019-05-02T00:18:25.874Z,9.68
2019-05-02T00:20:57.028Z,9.73
2019-05-02T00:23:29.536Z,9.74
2019-05-02T00:25:58.856Z,9.72
2019-05-02T00:28:27.890Z,9.73
2019-05-02T00:30:57.330Z,9.68
2019-05-02T00:33:29.201Z,9.62
2019-05-02T00:35:57.714Z,9.62
2019-05-02T00:38:33.385Z,9.37
2019-05-02T00:41:02.587Z,9.42
2019-05-02T00:43:36.628Z,9.39
2019-05-02T00:46:06.125Z,9.43
2019-05-02T00:48:42.788Z,9.41
2019-05-02T00:51:14.476Z,9.33
2019-05-02T00:53:44.493Z,9.35
2019-05-02T00:56:14.264Z,9.24
2019-05-02T00:58:44.928Z,9.24
2019-05-02T01:01:38.836Z,9.26
2019-05-02T01:04:29.013Z,9.20
2019-05-02T01:07:01.376Z,9.17
2019-05-02T01:09:33.480Z,9.07
2019-05-02T01:12:03.264Z,8.97
2019-05-02T01:14:34.758Z,8.85
2019-05-02T01:17:04.210Z,8.67
2019-05-02T01:19:33.550Z,8.43
2019-05-02T01:22:02.568Z,8.43
2019-05-02T01:24:39.427Z,8.43
2019-05-02T01:27:22.720Z,8.43
2019-05-02T01:30:01.681Z,8.45
2019-05-02T01:32:47.558Z,8.53
2019-05-02T01:35:26.964Z,8.59
2019-05-02T01:38:15.252Z,8.55
2019-05-02T01:40:53.219Z,8.61
2019-05-02T01:43:25.591Z,8.64
2019-05-02T01:45:56.602Z,8.63
2019-05-02T01:48:25.968Z,8.61
2019-05-02T01:50:55.686Z,8.62
2019-05-02T01:53:29.338Z,8.71
2019-05-02T01:55:59.338Z,8.75
2019-05-02T01:58:28.836Z,8.80
2019-05-02T02:01:01.288Z,8.84
2019-05-02T02:03:30.307Z,8.84
2019-05-02T02:06:02.785Z,8.91
2019-05-02T02:08:33.809Z,8.87
2019-05-02T02:11:03.466Z,8.85
2019-05-02T02:13:36.396Z,8.85
2019-05-02T02:16:06.745Z,8.85
2019-05-02T02:18:42.144Z,8.93
2019-05-02T02:21:43.327Z,8.95
2019-05-02T02:24:21.241Z,8.99
2019-05-02T02:26:49.920Z,8.91
2019-05-02T02:29:20.841Z,8.83
2019-05-02T02:31:50.181Z,8.76
2019-05-02T02:34:21.189Z,8.76
2019-05-02T02:36:50.318Z,8.75
2019-05-02T02:39:19.349Z,8.72
2019-05-02T02:41:52.286Z,8.65
2019-05-02T02:44:40.021Z,8.63
2019-05-02T02:47:11.961Z,8.53
2019-05-02T02:49:42.343Z,8.55
2019-05-02T02:52:11.538Z,8.54
2019-05-02T02:54:43.529Z,8.61
2019-05-02T02:57:20.871Z,8.47
2019-05-02T02:59:42.471Z,8.44
2019-05-02T03:02:13.605Z,8.54
2019-05-02T03:04:45.979Z,8.57
2019-05-02T03:07:24.503Z,8.65
2019-05-02T03:09:45.259Z,8.69
2019-05-02T03:12:36.278Z,8.76
2019-05-02T03:15:06.945Z,8.79
2019-05-02T03:17:36.015Z,8.77
2019-05-02T03:20:05.643Z,8.74
2019-05-02T03:22:41.386Z,8.71
2019-05-02T03:25:05.660Z,8.69
2019-05-02T03:27:37.156Z,8.67
2019-05-02T03:30:06.124Z,8.76
2019-05-02T03:32:36.928Z,8.75
2019-05-02T03:35:06.152Z,8.78
2019-05-02T03:37:35.201Z,8.84
2019-05-02T03:40:04.310Z,8.83
2019-05-02T03:42:45.170Z,8.82
2019-05-02T03:45:11.062Z,8.86
2019-05-02T03:47:43.706Z,8.92
2019-05-02T03:50:13.074Z,8.93
2019-05-02T03:52:46.290Z,9.03
2019-05-02T03:55:13.451Z,8.97
2019-05-02T03:57:43.685Z,8.97
2019-05-02T04:00:20.174Z,8.98
2019-05-02T04:02:44.275Z,8.94
2019-05-02T04:05:13.595Z,8.83
2019-05-02T04:07:43.151Z,8.82
2019-05-02T04:10:19.747Z,8.89
2019-05-02T04:12:53.047Z,8.97
2019-05-02T04:15:17.742Z,9.01
2019-05-02T04:17:48.638Z,9.04
2019-05-02T04:20:19.403Z,8.95
2019-05-02T04:22:50.669Z,8.96
2019-05-02T04:25:19.914Z,9.03
2019-05-02T04:27:50.948Z,9.02
2019-05-02T04:30:20.199Z,9.17
2019-05-02T04:32:55.846Z,9.16
2019-05-02T04:35:28.857Z,9.12
2019-05-02T04:38:00.973Z,9.22
2019-05-02T04:40:28.684Z,9.17
2019-05-02T04:43:02.039Z,9.11
2019-05-02T04:45:50.909Z,9.14
2019-05-02T04:48:04.082Z,9.25
2019-05-02T04:50:32.227Z,9.29
2019-05-02T04:53:01.281Z,9.56
2019-05-02T04:55:33.587Z,9.64
2019-05-02T04:58:03.218Z,9.69
2019-05-02T05:00:32.298Z,9.89
2019-05-02T05:03:07.238Z,9.99
2019-05-02T05:05:37.695Z,9.98
2019-05-02T05:08:07.748Z,9.93
2019-05-02T05:10:41.527Z,9.76
2019-05-02T05:13:12.134Z,10.05
2019-05-02T05:15:48.486Z,10.25
2019-05-02T05:18:14.277Z,10.13
2019-05-02T05:20:46.007Z,10.09
2019-05-02T05:23:18.267Z,10.26
2019-05-02T05:25:55.768Z,10.36
2019-05-02T05:28:22.676Z,10.39
2019-05-02T05:30:52.249Z,10.40
2019-05-02T05:33:22.164Z,10.36
2019-05-02T05:35:52.740Z,10.40
2019-05-02T05:38:22.939Z,10.34
2019-05-02T05:40:52.767Z,10.23
2019-05-02T05:43:21.809Z,10.37
2019-05-02T05:45:56.383Z,10.44
2019-05-02T05:48:21.637Z,10.57
2019-05-02T05:50:50.701Z,10.80
2019-05-02T05:53:21.973Z,10.86
2019-05-02T05:55:53.593Z,10.78
2019-05-02T05:58:22.213Z,10.95
2019-05-02T06:00:55.425Z,10.86
2019-05-02T06:03:22.399Z,11.03
2019-05-02T06:05:51.859Z,10.95
2019-05-02T06:08:21.175Z,10.95
2019-05-02T06:10:50.627Z,11.24
2019-05-02T06:13:19.644Z,11.14
2019-05-02T06:16:01.660Z,11.17
2019-05-02T06:18:20.127Z,11.20
2019-05-02T06:20:49.169Z,11.19
2019-05-02T06:23:18.221Z,11.19
2019-05-02T06:25:47.285Z,11.33
2019-05-02T06:28:16.303Z,11.34
2019-05-02T06:30:45.441Z,11.44
2019-05-02T06:33:14.543Z,11.50
2019-05-02T06:35:43.547Z,11.42
2019-05-02T06:38:12.629Z,11.44
2019-05-02T06:40:44.738Z,11.62
2019-05-02T06:43:16.864Z,11.53
2019-05-02T06:45:46.209Z,11.45
2019-05-02T06:48:17.781Z,11.39
2019-05-02T06:50:47.809Z,11.61
2019-05-02T06:53:16.833Z,11.65
2019-05-02T06:55:45.881Z,11.55
2019-05-02T06:58:16.944Z,11.73
2019-05-02T07:00:57.361Z,11.82
2019-05-02T07:03:17.708Z,11.97
2019-05-02T07:05:49.146Z,12.01
2019-05-02T07:08:19.042Z,12.06
2019-05-02T07:10:48.083Z,12.06
2019-05-02T07:13:17.254Z,12.07
2019-05-02T07:16:02.102Z,12.18
2019-05-02T07:18:35.393Z,11.97
2019-05-02T07:21:12.130Z,12.23
2019-05-02T07:23:39.307Z,12.23
2019-05-02T07:26:08.374Z,12.32
2019-05-02T07:28:40.461Z,12.27
2019-05-02T07:31:12.115Z,12.55
2019-05-02T07:33:41.417Z,12.58
2019-05-02T07:36:10.432Z,12.53
2019-05-02T07:38:39.786Z,12.39
2019-05-02T07:41:09.120Z,12.62
2019-05-02T07:43:38.366Z,12.62
2019-05-02T07:46:07.433Z,12.56
2019-05-02T07:48:38.986Z,12.76
2019-05-02T07:51:08.032Z,12.65
2019-05-02T07:53:37.805Z,12.39
2019-05-02T07:56:06.951Z,12.39
2019-05-02T07:58:38.485Z,12.51
2019-05-02T08:01:13.515Z,12.68
2019-05-02T08:03:45.783Z,12.80
2019-05-02T08:06:17.657Z,12.77
2019-05-02T08:08:46.677Z,12.84
2019-05-02T08:11:16.200Z,12.78
2019-05-02T08:13:49.465Z,12.97
2019-05-02T08:16:16.059Z,13.13
2019-05-02T08:18:45.553Z,13.10
2019-05-02T08:21:14.623Z,13.22
2019-05-02T08:23:43.669Z,13.23
2019-05-02T08:26:16.436Z,13.24
2019-05-02T08:28:51.870Z,13.32
2019-05-02T08:31:21.007Z,13.21
2019-05-02T08:33:50.138Z,13.38
2019-05-02T08:36:20.900Z,13.50
2019-05-02T08:38:53.587Z,13.62
2019-05-02T08:41:21.476Z,13.62
2019-05-02T08:43:51.249Z,13.73
2019-05-02T08:46:20.360Z,13.74
2019-05-02T08:48:50.817Z,13.78
2019-05-02T08:51:20.035Z,13.68
2019-05-02T08:53:52.054Z,13.72
2019-05-02T08:56:21.337Z,13.79
2019-05-02T08:58:51.207Z,13.82
2019-05-02T09:01:20.276Z,13.97
2019-05-02T09:03:55.049Z,13.89
2019-05-02T09:06:22.398Z,13.80
2019-05-02T09:08:52.883Z,14.10
2019-05-02T09:11:21.947Z,14.18
2019-05-02T09:13:52.604Z,14.35
2019-05-02T09:16:28.838Z,14.44
2019-05-02T09:18:54.146Z,14.46
2019-05-02T09:21:26.605Z,14.58
2019-05-02T09:23:54.256Z,14.83
2019-05-02T09:26:35.086Z,14.91
2019-05-02T09:28:56.321Z,15.21
2019-05-02T09:31:25.149Z,15.35
2019-05-02T09:33:55.695Z,15.46
2019-05-02T09:36:25.274Z,15.51
2019-05-02T09:38:57.889Z,15.43
2019-05-02T09:41:32.500Z,15.43
2019-05-02T09:43:59.598Z,15.29
2019-05-02T09:46:28.775Z,14.96
2019-05-02T09:49:04.335Z,15.05
2019-05-02T09:51:28.922Z,15.29
2019-05-02T09:54:02.594Z,15.34
2019-05-02T09:56:29.160Z,15.54
2019-05-02T09:59:06.198Z,15.22
2019-05-02T10:01:36.133Z,15.18
2019-05-02T10:04:07.431Z,15.34
2019-05-02T10:06:36.525Z,15.37
2019-05-02T10:09:07.908Z,15.27
2019-05-02T10:11:37.006Z,15.26
2019-05-02T10:14:06.505Z,15.24
2019-05-02T10:16:37.746Z,15.07
2019-05-02T10:19:10.676Z,15.21
2019-05-02T10:21:37.885Z,15.36
2019-05-02T10:24:09.821Z,15.53
2019-05-02T10:26:38.894Z,15.70
2019-05-02T10:29:08.403Z,15.67
2019-05-02T10:31:38.056Z,15.83
2019-05-02T10:34:08.563Z,15.83
2019-05-02T10:36:38.430Z,15.92
2019-05-02T10:39:08.315Z,15.79
2019-05-02T10:41:39.486Z,15.75
2019-05-02T10:44:08.109Z,15.85
2019-05-02T10:47:03.882Z,15.75
2019-05-02T10:49:57.709Z,15.91
2019-05-02T10:52:32.163Z,16.02
2019-05-02T10:54:58.179Z,16.27
2019-05-02T10:57:27.515Z,16.15
2019-05-02T10:59:56.742Z,16.00
2019-05-02T11:02:44.512Z,15.87
2019-05-02T11:05:21.822Z,16.06
2019-05-02T11:07:47.915Z,16.15
2019-05-02T11:10:18.127Z,16.54
2019-05-02T11:12:57.153Z,16.52
2019-05-02T11:15:43.754Z,16.55
2019-05-02T11:18:13.317Z,16.44
2019-05-02T11:20:42.676Z,15.68
2019-05-02T11:23:12.747Z,15.55
2019-05-02T11:25:42.187Z,15.29
2019-05-02T11:28:12.468Z,15.03
2019-05-02T11:30:42.053Z,14.96
2019-05-02T11:33:13.460Z,15.03
2019-05-02T11:35:49.191Z,15.09
2019-05-02T11:38:16.115Z,15.11
2019-05-02T11:40:43.726Z,15.00
2019-05-02T11:43:12.953Z,15.12
2019-05-02T11:45:42.487Z,14.94
2019-05-02T11:48:13.946Z,14.97
2019-05-02T11:50:42.763Z,14.81
2019-05-02T11:53:23.258Z,14.65
2019-05-02T11:55:43.857Z,14.68
2019-05-02T11:58:13.092Z,14.88
2019-05-02T12:00:48.017Z,14.68
2019-05-02T12:03:22.010Z,14.94
2019-05-02T12:05:52.446Z,14.93
2019-05-02T12:08:22.614Z,14.90
2019-05-02T12:10:52.055Z,14.95
2019-05-02T12:13:22.668Z,14.95
2019-05-02T12:15:52.232Z,14.99
2019-05-02T12:18:23.366Z,14.95
2019-05-02T12:20:52.474Z,14.96
2019-05-02T12:23:22.677Z,15.17
2019-05-02T12:25:52.146Z,15.36
2019-05-02T12:28:22.910Z,15.26
2019-05-02T12:30:54.273Z,15.40
2019-05-02T12:33:25.400Z,15.53
2019-05-02T12:35:58.780Z,15.42
2019-05-02T12:38:28.263Z,15.66
2019-05-02T12:40:57.988Z,15.66
2019-05-02T12:43:27.664Z,15.76
2019-05-02T12:45:56.886Z,15.81
2019-05-02T12:48:26.323Z,15.44
2019-05-02T12:50:58.798Z,15.28
2019-05-02T12:53:27.907Z,15.13
2019-05-02T12:55:56.941Z,15.06
2019-05-02T12:58:26.452Z,15.14
2019-05-02T13:00:55.564Z,15.12
2019-05-02T13:03:52.699Z,15.08
2019-05-02T13:06:24.584Z,14.88
2019-05-02T13:08:53.604Z,14.82
2019-05-02T13:11:42.205Z,14.62
2019-05-02T13:14:16.827Z,14.54
2019-05-02T13:16:40.388Z,14.58
2019-05-02T13:19:09.437Z,14.46
2019-05-02T13:21:50.110Z,14.44
2019-05-02T13:24:29.361Z,14.47
2019-05-02T13:26:59.514Z,14.61
2019-05-02T13:29:28.884Z,14.79
2019-05-02T13:32:08.744Z,14.97
2019-05-02T13:34:44.012Z,15.04
2019-05-02T13:37:16.862Z,15.20
2019-05-02T13:40:02.369Z,15.68
2019-05-02T13:42:31.322Z,16.18
2019-05-02T13:45:06.284Z,16.73
2019-05-02T13:47:35.409Z,17.17
2019-05-02T13:50:09.105Z,16.90
2019-05-02T13:52:38.130Z,16.99
2019-05-02T13:55:09.146Z,17.11
2019-05-02T13:57:43.122Z,16.81
2019-05-02T14:00:12.662Z,16.69
2019-05-02T14:02:42.817Z,16.63
2019-05-02T14:05:13.039Z,17.07
2019-05-02T14:07:48.137Z,17.79
2019-05-02T14:10:23.080Z,18.07
2019-05-02T14:13:03.278Z,18.81
2019-05-02T14:15:37.138Z,18.47
2019-05-02T14:18:06.474Z,17.91
2019-05-02T14:20:37.447Z,17.73
2019-05-02T14:23:07.272Z,17.54
2019-05-02T14:25:37.358Z,17.86
2019-05-02T14:28:06.803Z,18.15
2019-05-02T14:30:41.807Z,18.39
2019-05-02T14:33:14.887Z,18.01
2019-05-02T14:35:44.442Z,18.17
2019-05-02T14:38:14.638Z,18.31
2019-05-02T14:40:54.316Z,18.51
2019-05-02T14:43:44.488Z,18.59
2019-05-02T14:46:12.655Z,18.27
2019-05-02T14:48:45.297Z,18.50
2019-05-02T14:51:25.845Z,18.60
2019-05-02T14:53:49.586Z,18.74
2019-05-02T14:56:51.994Z,18.70
2019-05-02T14:59:22.683Z,18.63
2019-05-02T15:01:57.759Z,18.27
2019-05-02T15:04:25.648Z,18.25
2019-05-02T15:06:55.022Z,18.13
2019-05-02T15:09:26.726Z,18.70
2019-05-02T15:12:13.547Z,18.83
2019-05-02T15:14:35.860Z,19.37
2019-05-02T15:17:08.242Z,18.96
2019-05-02T15:19:37.597Z,18.44
2019-05-02T15:22:07.068Z,18.16
2019-05-02T15:24:37.924Z,18.41
2019-05-02T15:27:12.203Z,18.22
2019-05-02T15:29:38.083Z,18.51
2019-05-02T15:32:32.594Z,19.17
2019-05-02T15:35:13.010Z,19.07
2019-05-02T15:37:42.679Z,18.88
2019-05-02T15:40:46.759Z,19.59
2019-05-02T15:42:52.150Z,19.01
2019-05-02T15:45:23.824Z,18.40
2019-05-02T15:47:52.778Z,18.74
2019-05-02T15:50:25.518Z,18.79
2019-05-02T15:53:10.051Z,18.64
2019-05-02T15:55:40.137Z,18.04
2019-05-02T15:58:17.110Z,18.09
2019-05-02T16:00:52.041Z,17.84
2019-05-02T16:03:23.651Z,18.13
2019-05-02T16:05:53.034Z,17.82
2019-05-02T16:08:22.183Z,17.65
2019-05-02T16:10:54.410Z,17.81
2019-05-02T16:13:23.766Z,18.25
2019-05-02T16:15:57.174Z,18.78
2019-05-02T16:18:23.546Z,19.00
2019-05-02T16:21:05.574Z,18.90
2019-05-02T16:23:35.634Z,18.38
2019-05-02T16:26:06.436Z,18.13
2019-05-02T16:28:36.958Z,17.60
2019-05-02T16:31:09.680Z,17.44
2019-05-02T16:33:39.054Z,17.07
2019-05-02T16:36:08.530Z,17.06
2019-05-02T16:38:37.898Z,16.86
2019-05-02T16:41:09.871Z,16.75
2019-05-02T16:43:38.338Z,16.75
2019-05-02T16:46:11.881Z,16.95
2019-05-02T16:48:42.619Z,17.02
2019-05-02T16:51:27.589Z,17.20
2019-05-02T16:53:42.869Z,17.15
2019-05-02T16:56:12.196Z,16.82
2019-05-02T16:58:43.394Z,16.70
2019-05-02T17:01:19.641Z,16.53
2019-05-02T17:03:43.972Z,16.38
2019-05-02T17:06:16.993Z,16.22
2019-05-02T17:08:59.783Z,16.15
2019-05-02T17:11:38.629Z,16.18
2019-05-02T17:14:11.990Z,16.14
2019-05-02T17:16:38.476Z,15.99
2019-05-02T17:19:07.511Z,15.97
2019-05-02T17:21:52.913Z,16.00
2019-05-02T17:24:12.651Z,16.08
2019-05-02T17:26:42.295Z,16.06
2019-05-02T17:29:11.943Z,15.92
2019-05-02T17:31:42.680Z,15.77
2019-05-02T17:34:14.696Z,15.87
2019-05-02T17:36:45.889Z,15.98
2019-05-02T17:39:15.080Z,15.95
2019-05-02T17:41:45.763Z,15.80
2019-05-02T17:44:18.494Z,15.68
2019-05-02T17:46:50.749Z,15.47
2019-05-02T17:49:16.481Z,15.64
2019-05-02T17:52:18.305Z,15.72
2019-05-02T17:54:42.618Z,15.73
2019-05-02T17:57:11.899Z,15.70
2019-05-02T17:59:42.223Z,15.57
2019-05-02T18:02:15.788Z,15.59
2019-05-02T18:04:46.694Z,15.55
2019-05-02T18:07:18.109Z,15.55
2019-05-02T18:09:47.247Z,15.39
2019-05-02T18:12:16.708Z,15.17
2019-05-02T18:14:45.758Z,14.94
2019-05-02T18:17:15.223Z,14.81
2019-05-02T18:19:44.275Z,14.63
2019-05-02T18:22:23.446Z,14.53
2019-05-02T18:24:46.480Z,14.37
2019-05-02T18:27:15.664Z,14.28
2019-05-02T18:29:45.718Z,14.17
2019-05-02T18:32:17.452Z,14.04
2019-05-02T18:34:45.873Z,13.92
2019-05-02T18:37:15.401Z,13.74
2019-05-02T18:39:49.855Z,13.72
2019-05-02T18:42:22.002Z,13.65
2019-05-02T18:44:48.317Z,13.44
2019-05-02T18:47:20.126Z,13.44
2019-05-02T18:49:53.742Z,13.38
2019-05-02T18:52:19.678Z,13.24
2019-05-02T18:54:51.824Z,13.20
2019-05-02T18:57:24.509Z,13.08
2019-05-02T18:59:51.944Z,13.06
2019-05-02T19:02:26.324Z,13.03
2019-05-02T19:04:53.603Z,12.97
2019-05-02T19:07:32.504Z,13.01
2019-05-02T19:09:58.951Z,12.98
2019-05-02T19:12:27.366Z,12.94
2019-05-02T19:14:57.585Z,12.92
2019-05-02T19:17:30.230Z,12.87
2019-05-02T19:19:59.293Z,12.83
2019-05-02T19:22:28.363Z,12.78
2019-05-02T19:24:58.138Z,12.73
2019-05-02T19:27:45.043Z,12.67
2019-05-02T19:30:14.397Z,12.66
2019-05-02T19:32:43.540Z,12.57
2019-05-02T19:35:12.897Z,12.51
2019-05-02T19:37:46.066Z,12.47
2019-05-02T19:40:14.983Z,12.39
2019-05-02T19:42:45.046Z,12.33
2019-05-02T19:45:16.846Z,12.26
2019-05-02T19:47:48.924Z,12.16
2019-05-02T19:50:41.659Z,12.00
2019-05-02T19:53:14.904Z,11.96
2019-05-02T19:55:38.149Z,11.88
2019-05-02T19:58:07.397Z,11.96
2019-05-02T20:00:41.500Z,11.92
2019-05-02T20:03:07.949Z,11.86
2019-05-02T20:05:37.537Z,11.88
2019-05-02T20:08:09.627Z,11.78
2019-05-02T20:10:37.654Z,11.70
2019-05-02T20:13:06.845Z,11.61
2019-05-02T20:15:42.070Z,11.58
2019-05-02T20:18:11.933Z,11.53
2019-05-02T20:21:03.640Z,11.51
2019-05-02T20:23:35.546Z,11.53
2019-05-02T20:26:04.367Z,11.54
2019-05-02T20:28:33.796Z,11.47
2019-05-02T20:31:04.165Z,11.43
2019-05-02T20:33:34.044Z,11.33
2019-05-02T20:36:03.084Z,11.24
2019-05-02T20:38:32.552Z,11.21
2019-05-02T20:41:02.954Z,11.13
2019-05-02T20:43:32.428Z,11.12
2019-05-02T20:46:02.577Z,11.09
2019-05-02T20:48:32.430Z,10.99
2019-05-02T20:51:02.681Z,10.96
2019-05-02T20:53:34.197Z,10.89
2019-05-02T20:56:04.582Z,10.86
2019-05-02T20:58:34.251Z,10.82
2019-05-02T21:01:08.438Z,10.89
2019-05-02T21:03:35.987Z,10.91
2019-05-02T21:06:12.333Z,10.90
2019-05-02T21:09:18.855Z,10.90
2019-05-02T21:11:52.670Z,10.88
2019-05-02T21:14:21.802Z,10.89
2019-05-02T21:16:51.243Z,10.91
2019-05-02T21:19:21.748Z,10.93
2019-05-02T21:21:52.609Z,10.94
2019-05-02T21:24:22.171Z,10.95
2019-05-02T21:26:52.519Z,10.84
2019-05-02T21:29:25.049Z,10.84
2019-05-02T21:31:54.883Z,10.86
2019-05-02T21:34:25.688Z,10.95
2019-05-02T21:36:55.170Z,10.93
2019-05-02T21:39:24.268Z,10.99
2019-05-02T21:41:53.352Z,10.99
2019-05-02T21:44:22.761Z,11.06
2019-05-02T21:46:52.206Z,11.06
2019-05-02T21:49:55.215Z,11.13
2019-05-02T21:52:33.370Z,11.19
2019-05-02T21:55:25.682Z,11.23
2019-05-02T21:57:55.201Z,11.25
2019-05-02T22:00:46.764Z,11.36
2019-05-02T22:03:16.112Z,11.29
2019-05-02T22:05:45.321Z,11.35
2019-05-02T22:08:14.398Z,11.28
2019-05-02T22:10:43.756Z,11.31
2019-05-02T22:13:12.838Z,11.36
2019-05-02T22:15:42.103Z,11.31
2019-05-02T22:18:13.672Z,11.30
2019-05-02T22:20:42.889Z,11.29
2019-05-02T22:23:12.059Z,11.28
2019-05-02T22:25:41.969Z,11.28
2019-05-02T22:28:12.591Z,11.35
2019-05-02T22:30:42.911Z,11.31
2019-05-02T22:33:12.834Z,11.27
2019-05-02T22:35:45.440Z,11.30
2019-05-02T22:38:39.708Z,11.29
2019-05-02T22:41:08.771Z,11.35
2019-05-02T22:43:38.146Z,11.38
2019-05-02T22:46:08.896Z,11.46
2019-05-02T22:48:38.042Z,11.45
2019-05-02T22:51:07.872Z,11.45
2019-05-02T22:53:37.372Z,11.49
2019-05-02T22:56:08.275Z,11.45
2019-05-02T22:58:37.704Z,11.39
2019-05-02T23:01:07.214Z,11.34
2019-05-02T23:03:36.303Z,11.34
2019-05-02T23:06:05.476Z,11.32
2019-05-02T23:08:35.085Z,11.32
2019-05-02T23:11:04.201Z,11.28
2019-05-02T23:13:33.287Z,11.44
2019-05-02T23:16:02.934Z,11.43
2019-05-02T23:18:32.416Z,11.42
2019-05-02T23:21:02.205Z,11.36
2019-05-02T23:23:33.021Z,11.29
2019-05-02T23:26:39.384Z,11.27
2019-05-02T23:29:09.656Z,11.35
2019-05-02T23:31:39.896Z,11.33
2019-05-02T23:34:10.724Z,11.27
2019-05-02T23:36:41.641Z,11.36
2019-05-02T23:39:12.494Z,11.27
2019-05-02T23:41:42.227Z,11.15
2019-05-02T23:44:12.273Z,11.15
2019-05-02T23:46:42.421Z,11.20
2019-05-02T23:49:12.719Z,11.20
2019-05-02T23:51:42.836Z,11.17
2019-05-02T23:54:13.035Z,11.18
2019-05-02T23:56:43.188Z,11.18
2019-05-02T23:59:12.789Z,11.21
